createdAt,value
2017-02-11T00:01:09.905Z,-2.08
2017-02-11T00:02:23.225Z,-2.08
2017-02-11T00:03:36.267Z,-2.08
2017-02-11T00:04:49.369Z,-2.04
2017-02-11T00:06:02.452Z,-2.05
2017-02-11T00:07:15.560Z,-2.05
2017-02-11T00:08:28.622Z,-2.11
2017-02-11T00:09:41.690Z,-2.05
2017-02-11T00:10:54.772Z,-2.05
2017-02-11T00:12:07.822Z,-2.05
2017-02-11T00:13:20.165Z,-2.05
2017-02-11T00:14:33.222Z,-2.05
2017-02-11T00:15:46.270Z,-2.02
2017-02-11T00:16:58.900Z,-2.05
2017-02-11T00:18:11.222Z,-1.99
2017-02-11T00:19:24.330Z,-2.02
2017-02-11T00:20:37.359Z,-2.04
2017-02-11T00:21:50.449Z,-1.94
2017-02-11T00:23:03.520Z,-2.08
2017-02-11T00:24:16.472Z,-2.08
2017-02-11T00:25:29.617Z,-2.04
2017-02-11T00:26:42.631Z,-2
2017-02-11T00:27:55.284Z,-2
2017-02-11T00:29:08.299Z,-2
2017-02-11T00:30:21.357Z,-1.96
2017-02-11T00:31:34.416Z,-2.04
2017-02-11T00:32:47.525Z,-2.02
2017-02-11T00:34:00.599Z,-2.04
2017-02-11T00:35:13.638Z,-2
2017-02-11T00:36:26.316Z,-1.96
2017-02-11T00:37:39.425Z,-1.96
2017-02-11T00:38:52.133Z,-2.05
2017-02-11T00:40:05.192Z,-1.96
2017-02-11T00:41:17.832Z,-1.99
2017-02-11T00:42:30.882Z,-1.96
2017-02-11T00:43:43.918Z,-2
2017-02-11T00:44:56.954Z,-2
2017-02-11T00:46:09.916Z,-1.92
2017-02-11T00:47:22.590Z,-1.93
2017-02-11T00:48:35.240Z,-2
2017-02-11T00:49:47.870Z,-1.99
2017-02-11T00:51:00.972Z,-1.94
2017-02-11T00:52:14.131Z,-2
2017-02-11T00:53:27.191Z,-2.04
2017-02-11T00:54:40.321Z,-2
2017-02-11T00:55:53.435Z,-2.05
2017-02-11T00:57:06.728Z,-1.99
2017-02-11T00:58:19.779Z,-1.97
2017-02-11T00:59:32.820Z,-1.96
2017-02-11T01:00:45.915Z,-1.99
2017-02-11T01:01:58.997Z,-1.97
2017-02-11T01:03:11.355Z,-2.02
2017-02-11T01:04:23.653Z,-2.1
2017-02-11T01:05:36.675Z,-1.99
2017-02-11T01:06:49.719Z,-2.04
2017-02-11T01:08:02.740Z,-2.08
2017-02-11T01:09:14.659Z,-2.08
2017-02-11T01:10:27.706Z,-1.99
2017-02-11T01:11:40.729Z,-2.07
2017-02-11T01:12:53.783Z,-1.99
2017-02-11T01:14:06.845Z,-2.08
2017-02-11T01:15:18.744Z,-2.05
2017-02-11T01:16:31.846Z,-2.07
2017-02-11T01:17:44.990Z,-2.08
2017-02-11T01:18:58.014Z,-2.08
2017-02-11T01:20:11.139Z,-2.13
2017-02-11T01:21:24.192Z,-2.11
2017-02-11T01:22:37.290Z,-2.07
2017-02-11T01:23:50.337Z,-2.14
2017-02-11T01:25:03.041Z,-2.11
2017-02-11T01:26:14.927Z,-2.1
2017-02-11T01:27:28.030Z,-2.18
2017-02-11T01:28:41.104Z,-2.13
2017-02-11T01:29:53.813Z,-2.17
2017-02-11T01:31:06.496Z,-2.13
2017-02-11T01:32:19.622Z,-2.23
2017-02-11T01:33:32.657Z,-2.15
2017-02-11T01:34:45.698Z,-2.18
2017-02-11T01:35:58.772Z,-2.2
2017-02-11T01:37:11.849Z,-2.18
2017-02-11T01:38:24.900Z,-2.2
2017-02-11T01:39:37.940Z,-2.15
2017-02-11T01:40:50.870Z,-2.17
2017-02-11T01:42:03.938Z,-2.18
2017-02-11T01:43:16.285Z,-2.15
2017-02-11T01:44:29.377Z,-2.2
2017-02-11T01:45:42.459Z,-2.18
2017-02-11T01:46:55.511Z,-2.18
2017-02-11T01:48:08.551Z,-2.2
2017-02-11T01:49:21.570Z,-2.11
2017-02-11T01:50:34.262Z,-2.18
2017-02-11T01:51:47.342Z,-2.15
2017-02-11T01:53:00.438Z,-2.14
2017-02-11T01:54:13.515Z,-2.13
2017-02-11T01:55:26.153Z,-2.11
2017-02-11T01:56:39.247Z,-2.13
2017-02-11T01:57:52.292Z,-2.11
2017-02-11T01:59:05.349Z,-2.17
2017-02-11T02:00:18.064Z,-2.1
2017-02-11T02:01:31.180Z,-2.07
2017-02-11T02:02:44.202Z,-2.08
2017-02-11T02:03:57.223Z,-2.07
2017-02-11T02:05:10.320Z,-2.05
2017-02-11T02:06:23.324Z,-2.07
2017-02-11T02:07:36.453Z,-2
2017-02-11T02:08:49.506Z,-2.04
2017-02-11T02:10:02.546Z,-2.04
2017-02-11T02:11:15.573Z,-1.99
2017-02-11T02:12:28.628Z,-2.05
2017-02-11T02:13:41.907Z,-2.04
2017-02-11T02:14:55.045Z,-2.07
2017-02-11T02:16:07.334Z,-2.07
2017-02-11T02:17:20.419Z,-2.07
2017-02-11T02:18:33.459Z,-2.05
2017-02-11T02:19:46.143Z,-2
2017-02-11T02:20:59.226Z,-2.05
2017-02-11T02:22:11.878Z,-2.05
2017-02-11T02:23:24.966Z,-1.99
2017-02-11T02:24:38.079Z,-2
2017-02-11T02:25:51.123Z,-2.02
2017-02-11T02:27:04.179Z,-2
2017-02-11T02:28:16.822Z,-2
2017-02-11T02:29:29.893Z,-2.04
2017-02-11T02:30:43.013Z,-2
2017-02-11T02:31:56.102Z,-1.97
2017-02-11T02:33:08.742Z,-1.96
2017-02-11T02:34:21.437Z,-2.04
2017-02-11T02:35:34.493Z,-2
2017-02-11T02:36:47.585Z,-1.96
2017-02-11T02:38:00.294Z,-2.04
2017-02-11T02:39:13.014Z,-1.93
2017-02-11T02:40:25.719Z,-1.93
2017-02-11T02:41:38.796Z,-1.93
2017-02-11T02:42:51.824Z,-1.96
2017-02-11T02:44:04.587Z,-1.93
2017-02-11T02:45:17.660Z,-1.92
2017-02-11T02:46:30.911Z,-1.93
2017-02-11T02:47:44.012Z,-1.93
2017-02-11T02:48:57.096Z,-1.94
2017-02-11T02:50:09.781Z,-1.9
2017-02-11T02:51:22.838Z,-1.99
2017-02-11T02:52:36.001Z,-1.99
2017-02-11T02:53:49.018Z,-1.9
2017-02-11T02:55:02.053Z,-1.92
2017-02-11T02:56:15.084Z,-2
2017-02-11T02:57:28.166Z,-2.02
2017-02-11T02:58:41.288Z,-1.92
2017-02-11T02:59:54.352Z,-1.96
2017-02-11T03:01:07.422Z,-1.92
2017-02-11T03:02:20.451Z,-1.93
2017-02-11T03:03:33.546Z,-1.97
2017-02-11T03:04:46.603Z,-1.9
2017-02-11T03:05:59.673Z,-1.9
2017-02-11T03:07:12.752Z,-1.87
2017-02-11T03:08:25.806Z,-1.99
2017-02-11T03:09:38.860Z,-1.92
2017-02-11T03:10:51.895Z,-1.94
2017-02-11T03:12:04.548Z,-1.93
2017-02-11T03:13:17.115Z,-1.84
2017-02-11T03:14:30.160Z,-1.97
2017-02-11T03:15:43.306Z,-1.93
2017-02-11T03:16:56.356Z,-1.87
2017-02-11T03:18:09.073Z,-1.96
2017-02-11T03:19:21.745Z,-1.89
2017-02-11T03:20:34.769Z,-1.93
2017-02-11T03:21:47.811Z,-1.94
2017-02-11T03:23:00.837Z,-1.94
2017-02-11T03:24:13.919Z,-1.86
2017-02-11T03:25:27.010Z,-1.92
2017-02-11T03:26:40.062Z,-1.99
2017-02-11T03:27:53.126Z,-1.79
2017-02-11T03:29:06.211Z,-1.94
2017-02-11T03:30:18.910Z,-1.93
2017-02-11T03:31:31.978Z,-1.9
2017-02-11T03:32:44.988Z,-1.97
2017-02-11T03:33:57.732Z,-1.84
2017-02-11T03:35:10.802Z,-1.92
2017-02-11T03:36:23.953Z,-1.87
2017-02-11T03:37:37.019Z,-1.79
2017-02-11T03:38:50.127Z,-1.84
2017-02-11T03:40:03.433Z,-1.89
2017-02-11T03:41:15.727Z,-1.82
2017-02-11T03:42:28.819Z,-1.84
2017-02-11T03:43:41.854Z,-1.89
2017-02-11T03:44:54.851Z,-1.93
2017-02-11T03:46:07.878Z,-1.94
2017-02-11T03:47:20.574Z,-1.99
2017-02-11T03:48:33.572Z,-1.87
2017-02-11T03:49:46.666Z,-1.84
2017-02-11T03:50:59.680Z,-1.96
2017-02-11T03:52:12.742Z,-1.93
2017-02-11T03:53:25.868Z,-1.93
2017-02-11T03:54:38.968Z,-1.9
2017-02-11T03:55:51.650Z,-1.92
2017-02-11T03:57:04.328Z,-1.9
2017-02-11T03:58:16.987Z,-1.96
2017-02-11T03:59:30.067Z,-1.97
2017-02-11T04:00:43.107Z,-2.04
2017-02-11T04:01:56.142Z,-2.05
2017-02-11T04:03:08.807Z,-2.07
2017-02-11T04:04:21.160Z,-1.94
2017-02-11T04:05:34.250Z,-2.04
2017-02-11T04:06:47.316Z,-2.04
2017-02-11T04:08:00.416Z,-2.07
2017-02-11T04:09:13.077Z,-1.99
2017-02-11T04:10:26.213Z,-2
2017-02-11T04:11:39.268Z,-2.02
2017-02-11T04:12:52.314Z,-2.05
2017-02-11T04:14:05.310Z,-2.07
2017-02-11T04:15:18.357Z,-2.08
2017-02-11T04:16:31.463Z,-2.05
2017-02-11T04:17:44.551Z,-2.08
2017-02-11T04:18:57.600Z,-2.14
2017-02-11T04:20:10.645Z,-2.1
2017-02-11T04:21:23.341Z,-2.14
2017-02-11T04:22:36.468Z,-2.17
2017-02-11T04:23:49.529Z,-2.23
2017-02-11T04:25:02.598Z,-2.34
2017-02-11T04:26:15.280Z,-2.23
2017-02-11T04:27:28.352Z,-2.34
2017-02-11T04:28:41.479Z,-2.39
2017-02-11T04:29:54.537Z,-2.37
2017-02-11T04:31:07.253Z,-2.5
2017-02-11T04:32:20.273Z,-2.47
2017-02-11T04:33:33.344Z,-2.48
2017-02-11T04:34:46.670Z,-2.42
2017-02-11T04:35:59.710Z,-2.61
2017-02-11T04:37:11.988Z,-2.47
2017-02-11T04:38:24.642Z,-2.58
2017-02-11T04:39:37.748Z,-2.68
2017-02-11T04:40:50.772Z,-2.58
2017-02-11T04:42:03.865Z,-2.65
2017-02-11T04:43:16.548Z,-2.73
2017-02-11T04:44:29.689Z,-2.63
2017-02-11T04:45:42.694Z,-2.72
2017-02-11T04:46:55.798Z,-2.73
2017-02-11T04:48:08.926Z,-2.65
2017-02-11T04:49:22.027Z,-2.65
2017-02-11T04:50:35.091Z,-2.65
2017-02-11T04:51:48.456Z,-2.68
2017-02-11T04:53:01.146Z,-2.73
2017-02-11T04:54:14.226Z,-2.75
2017-02-11T04:55:27.288Z,-2.73
2017-02-11T04:56:40.322Z,-2.81
2017-02-11T04:57:52.994Z,-2.75
2017-02-11T04:59:06.066Z,-2.76
2017-02-11T05:00:18.756Z,-2.73
2017-02-11T05:01:31.424Z,-2.76
2017-02-11T05:02:44.595Z,-2.8
2017-02-11T05:03:57.696Z,-2.8
2017-02-11T05:05:10.379Z,-2.8
2017-02-11T05:06:23.069Z,-2.78
2017-02-11T05:07:36.154Z,-2.8
2017-02-11T05:08:49.306Z,-2.81
2017-02-11T05:10:02.349Z,-2.78
2017-02-11T05:11:15.364Z,-2.81
2017-02-11T05:12:28.438Z,-2.73
2017-02-11T05:13:41.476Z,-2.8
2017-02-11T05:14:54.527Z,-2.75
2017-02-11T05:16:07.635Z,-2.81
2017-02-11T05:17:20.320Z,-2.86
2017-02-11T05:18:33.378Z,-2.84
2017-02-11T05:19:46.416Z,-2.81
2017-02-11T05:20:59.528Z,-2.83
2017-02-11T05:22:12.186Z,-2.89
2017-02-11T05:23:25.275Z,-2.89
2017-02-11T05:24:38.358Z,-2.91
2017-02-11T05:25:51.400Z,-2.96
2017-02-11T05:27:04.492Z,-2.89
2017-02-11T05:28:17.146Z,-2.9
2017-02-11T05:29:30.216Z,-2.99
2017-02-11T05:30:43.307Z,-2.98
2017-02-11T05:31:56.339Z,-3.05
2017-02-11T05:33:09.448Z,-2.96
2017-02-11T05:34:22.549Z,-3.08
2017-02-11T05:35:35.583Z,-3.05
2017-02-11T05:36:48.616Z,-2.96
2017-02-11T05:38:01.686Z,-3.04
2017-02-11T05:39:14.389Z,-2.99
2017-02-11T05:40:27.329Z,-2.9
2017-02-11T05:41:40.439Z,-3.05
2017-02-11T05:42:53.509Z,-2.96
2017-02-11T05:44:06.606Z,-2.89
2017-02-11T05:45:19.701Z,-2.93
2017-02-11T05:46:32.797Z,-2.9
2017-02-11T05:47:45.824Z,-2.98
2017-02-11T05:48:58.870Z,-2.89
2017-02-11T05:50:11.547Z,-2.89
2017-02-11T05:51:24.287Z,-2.84
2017-02-11T05:52:37.392Z,-2.9
2017-02-11T05:53:50.465Z,-2.81
2017-02-11T05:55:03.504Z,-2.78
2017-02-11T05:56:15.801Z,-2.76
2017-02-11T05:57:28.896Z,-2.8
2017-02-11T05:58:41.962Z,-2.73
2017-02-11T05:59:55.031Z,-2.81
2017-02-11T06:01:08.097Z,-2.76
2017-02-11T06:02:21.146Z,-2.73
2017-02-11T06:03:34.251Z,-2.83
2017-02-11T06:04:46.942Z,-2.68
2017-02-11T06:06:00.061Z,-2.68
2017-02-11T06:07:12.739Z,-2.62
2017-02-11T06:08:25.822Z,-2.69
2017-02-11T06:09:38.904Z,-2.68
2017-02-11T06:10:52.001Z,-2.69
2017-02-11T06:12:05.027Z,-2.66
2017-02-11T06:13:17.343Z,-2.68
2017-02-11T06:14:30.406Z,-2.68
2017-02-11T06:15:43.465Z,-2.68
2017-02-11T06:16:56.496Z,-2.7
2017-02-11T06:18:09.498Z,-2.65
2017-02-11T06:19:22.615Z,-2.62
2017-02-11T06:20:35.723Z,-2.68
2017-02-11T06:21:48.814Z,-2.58
2017-02-11T06:23:01.906Z,-2.65
2017-02-11T06:24:14.995Z,-2.61
2017-02-11T06:25:27.986Z,-2.61
2017-02-11T06:26:40.610Z,-2.52
2017-02-11T06:27:53.731Z,-2.47
2017-02-11T06:29:06.770Z,-2.51
2017-02-11T06:30:19.060Z,-2.51
2017-02-11T06:31:32.143Z,-2.54
2017-02-11T06:32:45.226Z,-2.54
2017-02-11T06:33:58.322Z,-2.62
2017-02-11T06:35:11.355Z,-2.5
2017-02-11T06:36:24.040Z,-2.52
2017-02-11T06:37:37.125Z,-2.44
2017-02-11T06:38:50.194Z,-2.48
2017-02-11T06:40:03.291Z,-2.54
2017-02-11T06:41:16.360Z,-2.5
2017-02-11T06:42:29.482Z,-2.51
2017-02-11T06:43:42.538Z,-2.51
2017-02-11T06:44:55.657Z,-2.54
2017-02-11T06:46:08.945Z,-2.47
2017-02-11T06:47:22.013Z,-2.48
2017-02-11T06:48:35.066Z,-2.44
2017-02-11T06:49:47.809Z,-2.61
2017-02-11T06:51:00.889Z,-2.58
2017-02-11T06:52:12.823Z,-2.61
2017-02-11T06:53:25.847Z,-2.54
2017-02-11T06:54:38.930Z,-2.61
2017-02-11T06:55:51.979Z,-2.54
2017-02-11T06:57:05.035Z,-2.5
2017-02-11T06:58:17.699Z,-2.58
2017-02-11T06:59:30.382Z,-2.62
2017-02-11T07:00:43.407Z,-2.62
2017-02-11T07:01:56.042Z,-2.63
2017-02-11T07:03:09.122Z,-2.61
2017-02-11T07:04:21.785Z,-2.58
2017-02-11T07:05:34.453Z,-2.58
2017-02-11T07:06:47.450Z,-2.58
2017-02-11T07:08:00.520Z,-2.63
2017-02-11T07:09:13.208Z,-2.66
2017-02-11T07:10:25.884Z,-2.63
2017-02-11T07:11:38.995Z,-2.58
2017-02-11T07:12:52.279Z,-2.68
2017-02-11T07:14:05.361Z,-2.55
2017-02-11T07:15:18.456Z,-2.61
2017-02-11T07:16:31.552Z,-2.55
2017-02-11T07:17:44.685Z,-2.58
2017-02-11T07:18:57.760Z,-2.61
2017-02-11T07:20:10.781Z,-2.55
2017-02-11T07:21:23.934Z,-2.62
2017-02-11T07:22:36.602Z,-2.62
2017-02-11T07:23:49.689Z,-2.62
2017-02-11T07:25:02.790Z,-2.63
2017-02-11T07:26:15.083Z,-2.63
2017-02-11T07:27:28.160Z,-2.63
2017-02-11T07:28:41.250Z,-2.54
2017-02-11T07:29:54.288Z,-2.48
2017-02-11T07:31:07.472Z,-2.47
2017-02-11T07:32:20.153Z,-2.5
2017-02-11T07:33:32.867Z,-2.5
2017-02-11T07:34:45.905Z,-2.57
2017-02-11T07:35:58.929Z,-2.45
2017-02-11T07:37:11.597Z,-2.52
2017-02-11T07:38:24.239Z,-2.5
2017-02-11T07:39:36.904Z,-2.48
2017-02-11T07:40:50.003Z,-2.48
2017-02-11T07:42:03.039Z,-2.36
2017-02-11T07:43:16.125Z,-2.37
2017-02-11T07:44:29.145Z,-2.36
2017-02-11T07:45:42.452Z,-2.37
2017-02-11T07:46:55.581Z,-2.4
2017-02-11T07:48:08.611Z,-2.37
2017-02-11T07:49:21.287Z,-2.37
2017-02-11T07:50:34.006Z,-2.51
2017-02-11T07:51:47.059Z,-2.33
2017-02-11T07:53:00.152Z,-2.37
2017-02-11T07:54:13.247Z,-2.33
2017-02-11T07:55:25.959Z,-2.36
2017-02-11T07:56:39.054Z,-2.23
2017-02-11T07:57:52.125Z,-2.37
2017-02-11T07:59:05.176Z,-2.23
2017-02-11T08:00:18.293Z,-2.23
2017-02-11T08:01:31.380Z,-2.18
2017-02-11T08:02:44.515Z,-2.15
2017-02-11T08:03:57.586Z,-2.13
2017-02-11T08:05:10.749Z,-2.15
2017-02-11T08:06:23.789Z,-2.14
2017-02-11T08:07:36.844Z,-2.14
2017-02-11T08:08:49.930Z,-2.17
2017-02-11T08:10:02.940Z,-2.2
2017-02-11T08:11:15.672Z,-2.14
2017-02-11T08:12:28.712Z,-2.13
2017-02-11T08:13:41.822Z,-2.1
2017-02-11T08:14:54.881Z,-2.11
2017-02-11T08:16:07.962Z,-2.22
2017-02-11T08:17:21.027Z,-2.14
2017-02-11T08:18:34.085Z,-2.15
2017-02-11T08:19:47.099Z,-2.07
2017-02-11T08:21:00.225Z,-2.07
2017-02-11T08:22:13.284Z,-2.07
2017-02-11T08:23:26.614Z,-2.18
2017-02-11T08:24:39.696Z,-2.07
2017-02-11T08:25:52.786Z,-2.02
2017-02-11T08:27:05.820Z,-2.15
2017-02-11T08:28:18.926Z,-2.05
2017-02-11T08:29:31.992Z,-2.11
2017-02-11T08:30:44.640Z,-2.04
2017-02-11T08:31:57.709Z,-2.02
2017-02-11T08:33:10.759Z,-2.11
2017-02-11T08:34:23.801Z,-2.08
2017-02-11T08:35:36.835Z,-1.99
2017-02-11T08:36:49.919Z,-2.02
2017-02-11T08:38:03.015Z,-2.05
2017-02-11T08:39:15.708Z,-1.94
2017-02-11T08:40:28.392Z,-1.92
2017-02-11T08:41:41.451Z,-1.92
2017-02-11T08:42:54.515Z,-1.82
2017-02-11T08:44:07.576Z,-1.86
2017-02-11T08:45:20.314Z,-1.86
2017-02-11T08:46:33.316Z,-1.81
2017-02-11T08:47:46.381Z,-1.79
2017-02-11T08:48:59.433Z,-1.86
2017-02-11T08:50:12.511Z,-1.81
2017-02-11T08:51:25.209Z,-1.82
2017-02-11T08:52:38.251Z,-1.82
2017-02-11T08:53:50.921Z,-1.69
2017-02-11T08:55:03.955Z,-1.76
2017-02-11T08:56:17.020Z,-1.81
2017-02-11T08:57:30.047Z,-1.63
2017-02-11T08:58:43.211Z,-1.63
2017-02-11T08:59:56.282Z,-1.6
2017-02-11T09:01:09.379Z,-1.54
2017-02-11T09:02:22.399Z,-1.51
2017-02-11T09:03:35.508Z,-1.56
2017-02-11T09:04:48.167Z,-1.4
2017-02-11T09:06:01.244Z,-1.43
2017-02-11T09:07:13.889Z,-1.4
2017-02-11T09:08:26.539Z,-1.4
2017-02-11T09:09:39.657Z,-1.4
2017-02-11T09:10:52.676Z,-1.4
2017-02-11T09:12:05.733Z,-1.45
2017-02-11T09:13:18.413Z,-1.36
2017-02-11T09:14:31.452Z,-1.35
2017-02-11T09:15:44.536Z,-1.27
2017-02-11T09:16:57.557Z,-1.32
2017-02-11T09:18:10.666Z,-1.19
2017-02-11T09:19:23.749Z,-1.17
2017-02-11T09:20:36.428Z,-1.21
2017-02-11T09:21:49.493Z,-1.27
2017-02-11T09:23:02.575Z,-1.19
2017-02-11T09:24:15.631Z,-1.19
2017-02-11T09:25:28.739Z,-1.24
2017-02-11T09:26:41.767Z,-1.18
2017-02-11T09:27:54.823Z,-1.15
2017-02-11T09:29:07.940Z,-1.12
2017-02-11T09:30:21.043Z,-1.12
2017-02-11T09:31:34.120Z,-1.12
2017-02-11T09:32:47.228Z,-1.12
2017-02-11T09:34:00.277Z,-0.99
2017-02-11T09:35:13.371Z,-1.01
2017-02-11T09:36:26.425Z,-0.84
2017-02-11T09:37:39.498Z,-0.87
2017-02-11T09:38:52.557Z,-0.89
2017-02-11T09:40:05.252Z,-0.87
2017-02-11T09:41:17.131Z,-0.91
2017-02-11T09:42:30.251Z,-0.89
2017-02-11T09:43:43.292Z,-0.81
2017-02-11T09:44:56.344Z,-0.91
2017-02-11T09:46:09.038Z,-0.81
2017-02-11T09:47:21.714Z,-0.87
2017-02-11T09:48:34.775Z,-0.87
2017-02-11T09:49:47.796Z,-0.85
2017-02-11T09:51:00.854Z,-0.84
2017-02-11T09:52:13.937Z,-0.81
2017-02-11T09:53:27.041Z,-0.85
2017-02-11T09:54:39.732Z,-0.75
2017-02-11T09:55:52.832Z,-0.89
2017-02-11T09:57:05.971Z,-0.82
2017-02-11T09:58:19.004Z,-0.74
2017-02-11T09:59:32.169Z,-0.84
2017-02-11T10:01:07.020Z,-0.81
2017-02-11T10:02:19.679Z,-0.87
2017-02-11T10:03:32.373Z,-0.81
2017-02-11T10:04:45.482Z,-0.81
2017-02-11T10:05:58.183Z,-0.78
2017-02-11T10:07:11.321Z,-0.81
2017-02-11T10:08:23.608Z,-0.85
2017-02-11T10:09:36.662Z,-0.82
2017-02-11T10:10:49.728Z,-0.81
2017-02-11T10:12:02.840Z,-0.75
2017-02-11T10:13:15.878Z,-0.74
2017-02-11T10:14:29.044Z,-0.7
2017-02-11T10:15:41.719Z,-0.69
2017-02-11T10:16:54.773Z,-0.64
2017-02-11T10:18:07.866Z,-0.7
2017-02-11T10:19:20.557Z,-0.66
2017-02-11T10:20:33.632Z,-0.63
2017-02-11T10:21:46.723Z,-0.59
2017-02-11T10:23:00.026Z,-0.63
2017-02-11T10:24:12.715Z,-0.62
2017-02-11T10:25:25.755Z,-0.6
2017-02-11T10:26:38.488Z,-0.48
2017-02-11T10:27:51.567Z,-0.53
2017-02-11T10:29:04.668Z,-0.49
2017-02-11T10:30:17.370Z,-0.45
2017-02-11T10:31:30.430Z,-0.39
2017-02-11T10:32:43.500Z,-0.42
2017-02-11T10:33:56.539Z,-0.38
2017-02-11T10:35:09.650Z,-0.26
2017-02-11T10:36:22.656Z,-0.31
2017-02-11T10:37:35.732Z,-0.28
2017-02-11T10:38:48.861Z,-0.27
2017-02-11T10:40:01.555Z,-0.35
2017-02-11T10:41:14.618Z,-0.38
2017-02-11T10:42:27.344Z,-0.41
2017-02-11T10:43:40.450Z,-0.36
2017-02-11T10:44:53.808Z,-0.44
2017-02-11T10:46:06.881Z,-0.38
2017-02-11T10:47:19.986Z,-0.36
2017-02-11T10:48:33.047Z,-0.44
2017-02-11T10:49:46.118Z,-0.42
2017-02-11T10:50:59.286Z,-0.35
2017-02-11T10:52:11.995Z,-0.45
2017-02-11T10:53:24.709Z,-0.33
2017-02-11T10:54:37.799Z,-0.39
2017-02-11T10:55:50.947Z,-0.39
2017-02-11T10:57:03.995Z,-0.35
2017-02-11T10:58:16.683Z,-0.35
2017-02-11T10:59:29.716Z,-0.28
2017-02-11T11:00:42.823Z,-0.18
2017-02-11T11:01:56.137Z,-0.2
2017-02-11T11:03:09.221Z,-0.21
2017-02-11T11:04:22.291Z,-0.09
2017-02-11T11:05:34.913Z,-0.06
2017-02-11T11:06:47.996Z,0.02
2017-02-11T11:08:01.120Z,0.08
2017-02-11T11:09:14.233Z,0.16
2017-02-11T11:10:27.296Z,0.26
2017-02-11T11:11:39.943Z,0.27
2017-02-11T11:12:52.989Z,0.33
2017-02-11T11:14:06.092Z,0.29
2017-02-11T11:15:19.206Z,0.42
2017-02-11T11:16:32.203Z,0.39
2017-02-11T11:17:45.541Z,0.52
2017-02-11T11:18:58.605Z,0.52
2017-02-11T11:20:11.289Z,0.55
2017-02-11T11:21:24.377Z,0.55
2017-02-11T11:22:37.409Z,0.56
2017-02-11T11:23:50.477Z,0.58
2017-02-11T11:25:03.573Z,0.58
2017-02-11T11:26:16.226Z,0.64
2017-02-11T11:27:29.274Z,0.68
2017-02-11T11:28:42.353Z,0.73
2017-02-11T11:29:55.454Z,0.76
2017-02-11T11:31:08.537Z,0.84
2017-02-11T11:32:21.623Z,0.96
2017-02-11T11:33:34.705Z,0.96
2017-02-11T11:34:47.782Z,1
2017-02-11T11:36:00.861Z,1.04
2017-02-11T11:37:13.941Z,1.03
2017-02-11T11:38:26.978Z,1
2017-02-11T11:39:40.252Z,1.06
2017-02-11T11:40:53.325Z,1.03
2017-02-11T11:42:06.427Z,1.06
2017-02-11T11:43:19.168Z,1.03
2017-02-11T11:44:32.306Z,1
2017-02-11T11:45:45.353Z,0.94
2017-02-11T11:46:58.400Z,1
2017-02-11T11:48:11.497Z,1
2017-02-11T11:49:24.554Z,0.96
2017-02-11T11:50:37.663Z,0.95
2017-02-11T11:51:50.720Z,1
2017-02-11T11:53:03.797Z,1.02
2017-02-11T11:54:16.511Z,0.96
2017-02-11T11:55:28.795Z,0.89
2017-02-11T11:56:41.907Z,0.88
2017-02-11T11:57:54.586Z,0.82
2017-02-11T11:59:07.658Z,0.78
2017-02-11T12:00:20.778Z,0.76
2017-02-11T12:01:33.824Z,0.73
2017-02-11T12:02:46.907Z,0.7
2017-02-11T12:03:59.974Z,0.68
2017-02-11T12:05:12.655Z,0.61
2017-02-11T12:06:25.333Z,0.59
2017-02-11T12:07:38.346Z,0.66
2017-02-11T12:08:51.402Z,0.71
2017-02-11T12:10:04.452Z,0.68
2017-02-11T12:11:16.767Z,0.67
2017-02-11T12:12:29.069Z,0.67
2017-02-11T12:13:42.101Z,0.66
2017-02-11T12:14:55.183Z,0.66
2017-02-11T12:16:07.877Z,0.66
2017-02-11T12:17:21.008Z,0.61
2017-02-11T12:18:33.728Z,0.64
2017-02-11T12:19:46.821Z,0.55
2017-02-11T12:20:59.872Z,0.58
2017-02-11T12:22:12.585Z,0.61
2017-02-11T12:23:25.220Z,0.61
2017-02-11T12:24:37.858Z,0.59
2017-02-11T12:25:50.904Z,0.7
2017-02-11T12:27:04.024Z,0.63
2017-02-11T12:28:17.070Z,0.61
2017-02-11T12:29:30.186Z,0.71
2017-02-11T12:30:43.261Z,0.78
2017-02-11T12:31:56.302Z,0.82
2017-02-11T12:33:09.360Z,0.68
2017-02-11T12:34:22.430Z,0.61
2017-02-11T12:35:35.453Z,0.7
2017-02-11T12:36:48.597Z,0.61
2017-02-11T12:38:00.905Z,0.7
2017-02-11T12:39:12.850Z,0.61
2017-02-11T12:40:25.931Z,0.56
2017-02-11T12:41:39.006Z,0.56
2017-02-11T12:42:52.028Z,0.45
2017-02-11T12:44:05.089Z,0.37
2017-02-11T12:45:18.207Z,0.4
2017-02-11T12:46:31.245Z,0.29
2017-02-11T12:47:44.300Z,0.29
2017-02-11T12:48:56.978Z,0.29
2017-02-11T12:50:10.060Z,0.29
2017-02-11T12:51:23.133Z,0.3
2017-02-11T12:52:36.202Z,0.27
2017-02-11T12:53:49.284Z,0.27
2017-02-11T12:55:02.372Z,0.16
2017-02-11T12:56:15.055Z,0.08
2017-02-11T12:57:28.139Z,0.26
2017-02-11T12:58:41.284Z,0.2
2017-02-11T12:59:54.319Z,0.16
2017-02-11T13:01:07.351Z,0.19
2017-02-11T13:02:19.976Z,0.19
2017-02-11T13:03:32.665Z,0.18
2017-02-11T13:04:45.716Z,0.24
2017-02-11T13:05:58.793Z,0.15
2017-02-11T13:07:11.878Z,0.16
2017-02-11T13:08:24.922Z,0.16
2017-02-11T13:09:37.597Z,0.13
2017-02-11T13:10:50.689Z,0.18
2017-02-11T13:12:03.737Z,0.18
2017-02-11T13:13:16.800Z,0.09
2017-02-11T13:14:29.884Z,0.24
2017-02-11T13:15:42.932Z,0.13
2017-02-11T13:16:56.011Z,0.15
2017-02-11T13:18:08.676Z,0.16
2017-02-11T13:19:21.017Z,0.24
2017-02-11T13:20:33.319Z,0.29
2017-02-11T13:21:46.424Z,0.3
2017-02-11T13:22:59.500Z,0.29
2017-02-11T13:24:12.545Z,0.3
2017-02-11T13:25:25.654Z,0.36
2017-02-11T13:26:38.704Z,0.39
2017-02-11T13:27:51.756Z,0.37
2017-02-11T13:29:04.809Z,0.4
2017-02-11T13:30:17.087Z,0.37
2017-02-11T13:31:30.153Z,0.39
2017-02-11T13:32:43.291Z,0.29
2017-02-11T13:33:56.361Z,0.4
2017-02-11T13:35:09.082Z,0.48
2017-02-11T13:36:22.131Z,0.42
2017-02-11T13:37:35.193Z,0.37
2017-02-11T13:38:47.849Z,0.39
2017-02-11T13:40:00.883Z,0.42
2017-02-11T13:41:13.949Z,0.34
2017-02-11T13:42:27.008Z,0.39
2017-02-11T13:43:39.656Z,0.26
2017-02-11T13:44:52.776Z,0.39
2017-02-11T13:46:05.878Z,0.36
2017-02-11T13:47:19.028Z,0.42
2017-02-11T13:48:32.092Z,0.39
2017-02-11T13:49:45.207Z,0.37
2017-02-11T13:50:57.485Z,0.39
2017-02-11T13:52:10.179Z,0.44
2017-02-11T13:53:22.873Z,0.37
2017-02-11T13:54:35.965Z,0.4
2017-02-11T13:55:49.068Z,0.33
2017-02-11T13:57:02.151Z,0.27
2017-02-11T13:58:15.223Z,0.33
2017-02-11T13:59:28.549Z,0.33
2017-02-11T14:00:41.271Z,0.36
2017-02-11T14:01:54.329Z,0.34
2017-02-11T14:03:07.436Z,0.33
2017-02-11T14:04:19.734Z,0.29
2017-02-11T14:05:32.783Z,0.34
2017-02-11T14:06:45.820Z,0.31
2017-02-11T14:07:58.879Z,0.31
2017-02-11T14:09:12.033Z,0.3
2017-02-11T14:10:25.144Z,0.3
2017-02-11T14:11:38.170Z,0.33
2017-02-11T14:12:51.287Z,0.31
2017-02-11T14:14:04.413Z,0.26
2017-02-11T14:15:17.546Z,0.27
2017-02-11T14:16:30.617Z,0.33
2017-02-11T14:17:43.701Z,0.29
2017-02-11T14:18:56.776Z,0.27
2017-02-11T14:20:09.880Z,0.16
2017-02-11T14:21:22.776Z,0.15
2017-02-11T14:22:35.830Z,0.24
2017-02-11T14:23:48.185Z,0.16
2017-02-11T14:25:01.231Z,0.2
2017-02-11T14:26:13.886Z,0.13
2017-02-11T14:27:26.910Z,0.18
2017-02-11T14:28:40.018Z,0.11
2017-02-11T14:29:53.059Z,0.12
2017-02-11T14:31:06.175Z,0.18
2017-02-11T14:32:19.195Z,0.06
2017-02-11T14:33:32.271Z,0.13
2017-02-11T14:34:45.361Z,0
2017-02-11T14:35:58.109Z,0.16
2017-02-11T14:37:11.239Z,0.11
2017-02-11T14:38:24.378Z,0.08
2017-02-11T14:39:37.064Z,0.05
2017-02-11T14:40:49.746Z,0.06
2017-02-11T14:42:02.805Z,0
2017-02-11T14:43:14.732Z,0.01
2017-02-11T14:44:27.814Z,-0.09
2017-02-11T14:45:40.843Z,-0.07
2017-02-11T14:46:53.977Z,-0.15
2017-02-11T14:48:06.670Z,-0.07
2017-02-11T14:49:18.931Z,-0.06
2017-02-11T14:50:32.002Z,-0.06
2017-02-11T14:51:45.125Z,-0.1
2017-02-11T14:52:58.293Z,-0.12
2017-02-11T14:54:10.933Z,-0.1
2017-02-11T14:55:23.988Z,-0.15
2017-02-11T14:56:37.094Z,-0.15
2017-02-11T14:57:50.134Z,-0.17
2017-02-11T14:59:03.204Z,-0.2
2017-02-11T15:00:16.296Z,-0.26
2017-02-11T15:01:29.384Z,-0.21
2017-02-11T15:02:42.416Z,-0.27
2017-02-11T15:03:55.487Z,-0.33
2017-02-11T15:05:08.214Z,-0.33
2017-02-11T15:06:20.899Z,-0.26
2017-02-11T15:07:33.995Z,-0.35
2017-02-11T15:08:47.038Z,-0.28
2017-02-11T15:10:00.110Z,-0.38
2017-02-11T15:11:13.173Z,-0.27
2017-02-11T15:12:26.251Z,-0.39
2017-02-11T15:13:39.422Z,-0.39
2017-02-11T15:14:52.448Z,-0.35
2017-02-11T15:16:05.166Z,-0.38
2017-02-11T15:17:17.872Z,-0.3
2017-02-11T15:18:30.956Z,-0.27
2017-02-11T15:19:44.002Z,-0.42
2017-02-11T15:20:57.293Z,-0.42
2017-02-11T15:22:10.090Z,-0.33
2017-02-11T15:23:23.117Z,-0.45
2017-02-11T15:24:36.203Z,-0.42
2017-02-11T15:25:48.882Z,-0.59
2017-02-11T15:27:01.926Z,-0.54
2017-02-11T15:28:15.001Z,-0.56
2017-02-11T15:29:28.082Z,-0.56
2017-02-11T15:30:40.734Z,-0.53
2017-02-11T15:31:53.761Z,-0.56
2017-02-11T15:33:06.831Z,-0.57
2017-02-11T15:34:19.907Z,-0.56
2017-02-11T15:35:33.031Z,-0.51
2017-02-11T15:36:46.080Z,-0.59
2017-02-11T15:37:59.175Z,-0.62
2017-02-11T15:39:12.285Z,-0.59
2017-02-11T15:40:24.982Z,-0.59
2017-02-11T15:41:38.060Z,-0.66
2017-02-11T15:42:51.374Z,-0.67
2017-02-11T15:44:04.447Z,-0.62
2017-02-11T15:45:17.564Z,-0.67
2017-02-11T15:46:30.638Z,-0.69
2017-02-11T15:47:43.676Z,-0.67
2017-02-11T15:48:56.738Z,-0.75
2017-02-11T15:50:09.801Z,-0.72
2017-02-11T15:51:22.845Z,-0.7
2017-02-11T15:52:35.869Z,-0.75
2017-02-11T15:53:48.917Z,-0.77